Time;durP1;ratioP1;P1;durP2;ratioP2;P2;SDS_P1;SDS_P2;PMS_P1;PMS_P2;Temp;Humidity;BMP_temperature;BMP_pressure;BME280_temperature;BME280_humidity;BME280_pressure;Samples;Min_cycle;Max_cycle;Signal;HPM_P1;HPM_P2
2023/01/28 00:01:35;;;;;;;;;;;4.40;99.90;;;;;;4995654;28;19953;-84
2023/01/28 00:04:01;;;;;;;;;;;4.30;99.90;;;;;;4995802;28;20447;-85
2023/01/28 00:06:26;;;;;;;;;;;4.30;99.90;;;;;;4995360;28;19922;-85
2023/01/28 00:08:53;;;;;;;;;;;4.30;99.90;;;;;;4995303;28;19960;-84
2023/01/28 00:11:21;;;;;;;;;;;4.20;99.90;;;;;;4993834;28;20340;-84
2023/01/28 00:13:51;;;;;;;;;;;4.20;99.90;;;;;;4989876;28;19905;-84
2023/01/28 00:16:16;;;;;;;;;;;4.20;99.90;;;;;;4975786;28;19961;-84
2023/01/28 00:18:42;;;;;;;;;;;4.20;99.90;;;;;;4990677;28;19913;-84
2023/01/28 00:21:11;;;;;;;;;;;4.20;99.90;;;;;;4975596;28;20373;-85
2023/01/28 00:23:37;;;;;;;;;;;4.20;99.90;;;;;;4975918;28;19910;-85
2023/01/28 00:26:05;;;;;;;;;;;4.20;99.90;;;;;;4975319;28;19938;-84
2023/01/28 00:28:30;;;;;;;;;;;4.20;99.90;;;;;;4975316;28;19920;-84
2023/01/28 00:30:56;;;;;;;;;;;4.20;99.90;;;;;;4975399;28;20008;-85
2023/01/28 00:33:21;;;;;;;;;;;4.10;99.90;;;;;;4975521;28;19961;-84
2023/01/28 00:35:47;;;;;;;;;;;4.10;99.90;;;;;;4990484;28;20004;-84
2023/01/28 00:38:13;;;;;;;;;;;4.10;99.90;;;;;;4990772;28;19906;-85
2023/01/28 00:40:38;;;;;;;;;;;4.10;99.90;;;;;;4974969;28;19937;-85
2023/01/28 00:43:04;;;;;;;;;;;4.00;99.90;;;;;;4975065;28;19982;-84
2023/01/28 00:45:29;;;;;;;;;;;4.10;99.90;;;;;;4978075;28;19909;-85
2023/01/28 00:47:55;;;;;;;;;;;4.00;99.90;;;;;;4994611;28;20333;-85
2023/01/28 00:50:21;;;;;;;;;;;4.10;99.90;;;;;;4994386;28;19910;-84
2023/01/28 00:52:46;;;;;;;;;;;4.10;99.90;;;;;;4994730;28;19913;-85
2023/01/28 00:55:12;;;;;;;;;;;4.10;99.90;;;;;;5009509;28;20004;-85
2023/01/28 00:57:38;;;;;;;;;;;4.10;99.90;;;;;;4992338;28;19906;-84
2023/01/28 01:00:04;;;;;;;;;;;4.10;99.90;;;;;;5027283;28;19963;-85
2023/01/28 01:02:30;;;;;;;;;;;4.10;99.90;;;;;;5014014;28;19906;-85
2023/01/28 01:04:58;;;;;;;;;;;4.10;99.90;;;;;;5013663;28;20347;-85
2023/01/28 01:07:33;;;;;;;;;;;4.20;99.90;;;;;;5014062;28;20364;-84
2023/01/28 01:10:00;;;;;;;;;;;4.10;99.90;;;;;;5013863;28;20323;-84
2023/01/28 01:12:25;;;;;;;;;;;4.20;99.90;;;;;;5002142;28;19913;-84
2023/01/28 01:14:51;;;;;;;;;;;4.10;99.90;;;;;;4994081;28;20292;-85
2023/01/28 01:17:16;;;;;;;;;;;4.20;99.90;;;;;;4993524;28;19957;-85
2023/01/28 01:19:42;;;;;;;;;;;4.10;99.90;;;;;;5008947;28;19906;-85
2023/01/28 01:22:07;;;;;;;;;;;4.10;99.90;;;;;;4993962;28;19912;-85
2023/01/28 01:24:33;;;;;;;;;;;4.20;99.90;;;;;;4993659;28;20415;-84
2023/01/28 01:26:58;;;;;;;;;;;4.10;99.90;;;;;;4993563;28;19960;-84
2023/01/28 01:29:24;;;;;;;;;;;4.10;99.90;;;;;;4993945;28;19906;-84
2023/01/28 01:31:49;;;;;;;;;;;4.10;99.90;;;;;;4994008;28;20032;-84
2023/01/28 01:34:15;;;;;;;;;;;4.00;99.90;;;;;;5008735;28;19975;-85
2023/01/28 01:36:42;;;;;;;;;;;4.10;99.90;;;;;;4992478;28;19964;-84
2023/01/28 01:39:10;;;;;;;;;;;4.10;99.90;;;;;;4993991;28;19912;-85
2023/01/28 01:41:36;;;;;;;;;;;4.10;99.90;;;;;;4993628;28;20016;-85
2023/01/28 01:44:03;;;;;;;;;;;4.10;99.90;;;;;;4993383;28;19956;-85
2023/01/28 01:46:42;;;;;;;;;;;4.10;99.90;;;;;;5001246;28;19905;-85
2023/01/28 01:49:17;;;;;;;;;;;4.10;99.90;;;;;;4993498;28;19906;-85
2023/01/28 01:51:45;;;;;;;;;;;4.10;99.90;;;;;;4992262;28;20273;-84
2023/01/28 01:54:10;;;;;;;;;;;4.20;99.90;;;;;;5008489;28;19914;-84
2023/01/28 01:56:39;;;;;;;;;;;4.20;99.90;;;;;;4993270;28;19910;-87
2023/01/28 01:59:08;;;;;;;;;;;4.20;99.90;;;;;;5004335;28;19905;-87
2023/01/28 02:01:33;;;;;;;;;;;4.20;99.90;;;;;;5013183;28;19960;-87
2023/01/28 02:04:09;;;;;;;;;;;4.20;99.90;;;;;;5013018;28;20431;-87
2023/01/28 02:06:35;;;;;;;;;;;4.10;99.90;;;;;;5012826;28;19917;-86
2023/01/28 02:09:01;;;;;;;;;;;4.20;99.90;;;;;;5012967;28;19909;-87
2023/01/28 02:11:29;;;;;;;;;;;4.20;99.90;;;;;;5006771;28;19905;-86
2023/01/28 02:13:56;;;;;;;;;;;4.20;99.90;;;;;;4972918;28;19906;-87
2023/01/28 02:16:22;;;;;;;;;;;4.10;99.90;;;;;;4988670;28;20012;-87
2023/01/28 02:18:48;;;;;;;;;;;4.10;99.90;;;;;;4973698;28;19960;-86
2023/01/28 02:21:32;;;;;;;;;;;4.10;99.90;;;;;;4973661;28;19910;-86
2023/01/28 02:24:15;;;;;;;;;;;4.10;99.90;;;;;;4972548;28;19913;-87
2023/01/28 02:26:41;;;;;;;;;;;4.10;99.90;;;;;;4973245;28;20163;-87
2023/01/28 02:29:06;;;;;;;;;;;4.10;99.90;;;;;;4973789;28;19910;-87
2023/01/28 02:31:37;;;;;;;;;;;4.10;99.90;;;;;;4973714;28;19910;-86
2023/01/28 02:34:29;;;;;;;;;;;4.10;99.90;;;;;;4973517;28;19965;-86
2023/01/28 02:37:10;;;;;;;;;;;4.10;99.90;;;;;;4973407;28;20008;-86
2023/01/28 02:39:39;;;;;;;;;;;4.10;99.90;;;;;;4973742;28;19906;-87
2023/01/28 02:42:18;;;;;;;;;;;4.10;99.90;;;;;;4988240;28;19929;-87
2023/01/28 02:44:44;;;;;;;;;;;4.10;99.90;;;;;;4988311;28;19906;-87
2023/01/28 02:49:56;;;;;;;;;;;4.10;99.90;;;;;;4993200;28;19912;-86
2023/01/28 02:55:44;;;;;;;;;;;4.10;99.90;;;;;;4992702;28;19954;-87
2023/01/28 02:58:30;;;;;;;;;;;4.20;99.90;;;;;;4995191;28;19909;-86
2023/01/28 03:01:11;;;;;;;;;;;4.10;99.90;;;;;;5011800;28;19980;-86
2023/01/28 03:03:44;;;;;;;;;;;4.10;99.90;;;;;;5012762;28;19912;-86
2023/01/28 03:06:11;;;;;;;;;;;4.10;99.90;;;;;;5010882;28;19918;-86
2023/01/28 03:36:49;;;;;;;;;;;4.10;99.90;;;;;;4976574;28;19957;-87
2023/01/28 03:39:21;;;;;;;;;;;4.10;99.90;;;;;;4991473;28;19956;-86
2023/01/28 03:41:55;;;;;;;;;;;4.10;99.90;;;;;;4976500;28;19917;-86
2023/01/28 03:47:07;;;;;;;;;;;4.10;99.90;;;;;;4992033;28;20288;-87
2023/01/28 03:49:33;;;;;;;;;;;4.10;99.90;;;;;;4995855;28;19909;-87
2023/01/28 03:51:59;;;;;;;;;;;4.00;99.90;;;;;;4994448;28;19960;-87
2023/01/28 03:54:24;;;;;;;;;;;4.10;99.90;;;;;;4995483;28;19913;-87
2023/01/28 03:56:50;;;;;;;;;;;4.10;99.90;;;;;;4995024;28;19909;-87
2023/01/28 03:59:15;;;;;;;;;;;4.00;99.90;;;;;;5007856;28;19912;-87
2023/01/28 04:01:41;;;;;;;;;;;4.10;99.90;;;;;;5015305;28;19913;-87
2023/01/28 04:04:06;;;;;;;;;;;4.10;99.90;;;;;;5013838;28;19995;-86
2023/01/28 04:06:32;;;;;;;;;;;4.10;99.90;;;;;;5014746;28;19987;-87
2023/01/28 04:09:00;;;;;;;;;;;4.10;99.90;;;;;;5014978;28;19905;-87
2023/01/28 04:11:26;;;;;;;;;;;4.10;99.90;;;;;;5010131;28;19941;-86
2023/01/28 04:13:51;;;;;;;;;;;4.10;99.90;;;;;;4975402;28;20008;-87
2023/01/28 04:16:18;;;;;;;;;;;4.10;99.90;;;;;;4975084;28;19906;-86
2023/01/28 04:18:43;;;;;;;;;;;4.10;99.90;;;;;;4990684;28;19910;-86
2023/01/28 04:21:09;;;;;;;;;;;4.10;99.90;;;;;;4990803;28;19910;-87
2023/01/28 04:23:35;;;;;;;;;;;4.10;99.90;;;;;;4976337;28;19958;-86
2023/01/28 04:26:00;;;;;;;;;;;4.10;99.90;;;;;;4980353;28;19916;-87
2023/01/28 04:28:26;;;;;;;;;;;4.10;99.90;;;;;;4994756;28;20369;-87
2023/01/28 04:30:51;;;;;;;;;;;4.10;99.90;;;;;;4994860;28;19909;-86
2023/01/28 04:33:17;;;;;;;;;;;4.10;99.90;;;;;;4993732;28;20352;-87
2023/01/28 04:35:43;;;;;;;;;;;4.10;99.90;;;;;;4993905;28;19913;-86
2023/01/28 04:38:08;;;;;;;;;;;4.10;99.90;;;;;;4994674;28;19909;-87
2023/01/28 04:40:34;;;;;;;;;;;4.10;99.90;;;;;;4994806;28;19910;-86
2023/01/28 04:42:59;;;;;;;;;;;4.10;99.90;;;;;;4994307;28;19952;-86
2023/01/28 04:45:25;;;;;;;;;;;4.10;99.90;;;;;;5009646;28;19906;-86
2023/01/28 04:47:50;;;;;;;;;;;4.10;99.90;;;;;;4994882;28;19906;-87
2023/01/28 04:50:16;;;;;;;;;;;4.10;99.90;;;;;;4994549;28;19913;-86
2023/01/28 04:52:42;;;;;;;;;;;4.10;99.90;;;;;;5009762;28;20284;-87
2023/01/28 04:55:07;;;;;;;;;;;4.10;99.90;;;;;;4994527;28;20327;-87
2023/01/28 04:57:33;;;;;;;;;;;4.10;99.90;;;;;;4994477;28;19957;-86
2023/01/28 04:59:58;;;;;;;;;;;4.10;99.90;;;;;;5012292;28;19957;-87
2023/01/28 05:02:24;;;;;;;;;;;4.10;99.90;;;;;;5014014;28;19906;-87
2023/01/28 05:04:49;;;;;;;;;;;4.10;99.90;;;;;;5013846;28;19918;-87
2023/01/28 05:07:15;;;;;;;;;;;4.10;99.90;;;;;;5013920;28;20368;-86
2023/01/28 05:09:41;;;;;;;;;;;4.10;99.90;;;;;;5013894;28;20296;-86
2023/01/28 05:12:06;;;;;;;;;;;4.10;99.90;;;;;;4998351;28;19957;-86
2023/01/28 05:14:32;;;;;;;;;;;4.10;99.90;;;;;;4974227;28;19906;-86
2023/01/28 05:16:57;;;;;;;;;;;4.10;99.90;;;;;;4974269;28;19910;-87
2023/01/28 05:19:22;;;;;;;;;;;4.00;99.90;;;;;;4974785;28;19906;-87
2023/01/28 05:21:48;;;;;;;;;;;4.10;99.90;;;;;;4974542;28;19909;-87
2023/01/28 05:24:14;;;;;;;;;;;4.10;99.90;;;;;;4974581;28;19953;-85
2023/01/28 05:26:40;;;;;;;;;;;4.10;99.90;;;;;;4974034;28;19910;-87
2023/01/28 05:29:05;;;;;;;;;;;4.10;99.90;;;;;;4989441;28;19913;-87
2023/01/28 05:31:31;;;;;;;;;;;4.10;99.90;;;;;;4989395;28;20008;-86
2023/01/28 05:33:56;;;;;;;;;;;4.10;99.90;;;;;;4974386;28;19906;-86
2023/01/28 05:36:22;;;;;;;;;;;4.10;99.90;;;;;;4974377;28;19909;-86
2023/01/28 05:38:47;;;;;;;;;;;4.10;99.90;;;;;;4989291;28;19945;-87
2023/01/28 05:41:13;;;;;;;;;;;4.10;99.90;;;;;;4974076;28;19910;-86
2023/01/28 05:43:38;;;;;;;;;;;4.10;99.90;;;;;;4972985;28;19910;-86
2023/01/28 05:46:04;;;;;;;;;;;4.10;99.90;;;;;;4973584;28;20427;-86
2023/01/28 05:48:30;;;;;;;;;;;4.10;99.90;;;;;;4989064;28;19937;-86
2023/01/28 05:50:55;;;;;;;;;;;4.10;99.90;;;;;;4974234;28;19906;-87
2023/01/28 05:53:21;;;;;;;;;;;4.10;99.90;;;;;;4974708;28;19914;-86
2023/01/28 05:55:47;;;;;;;;;;;4.10;99.90;;;;;;4974113;28;20297;-87
2023/01/28 05:58:13;;;;;;;;;;;4.10;99.90;;;;;;4981266;28;19906;-86
2023/01/28 06:00:38;;;;;;;;;;;4.10;99.90;;;;;;5012958;28;19931;-87
2023/01/28 06:03:04;;;;;;;;;;;4.10;99.90;;;;;;5013130;28;20340;-87
2023/01/28 06:05:29;;;;;;;;;;;4.10;99.90;;;;;;5013081;28;19963;-87
2023/01/28 06:07:55;;;;;;;;;;;4.00;99.90;;;;;;5013052;28;19912;-86
2023/01/28 06:10:20;;;;;;;;;;;4.10;99.90;;;;;;5011015;28;20364;-86
2023/01/28 06:12:46;;;;;;;;;;;4.00;99.90;;;;;;4986365;28;19906;-86
2023/01/28 06:15:11;;;;;;;;;;;4.10;99.90;;;;;;4973937;28;19921;-86
2023/01/28 06:17:37;;;;;;;;;;;4.10;99.90;;;;;;4973150;28;19913;-86
2023/01/28 06:20:03;;;;;;;;;;;4.00;99.90;;;;;;4972455;28;19917;-87
2023/01/28 06:22:28;;;;;;;;;;;4.10;99.90;;;;;;4973530;28;19949;-85
2023/01/28 06:24:53;;;;;;;;;;;4.00;99.90;;;;;;4973551;28;19917;-85
2023/01/28 06:27:19;;;;;;;;;;;4.00;99.90;;;;;;4973697;28;19907;-84
2023/01/28 06:29:45;;;;;;;;;;;4.00;99.90;;;;;;4973846;28;19953;-85
2023/01/28 06:32:10;;;;;;;;;;;4.00;99.90;;;;;;4973669;28;19906;-84
2023/01/28 06:34:35;;;;;;;;;;;4.00;99.90;;;;;;4973636;28;19917;-84
2023/01/28 06:37:03;;;;;;;;;;;4.00;99.90;;;;;;4989073;28;20327;-85
2023/01/28 06:39:30;;;;;;;;;;;4.00;99.90;;;;;;4992996;28;20288;-84
2023/01/28 06:41:56;;;;;;;;;;;3.90;99.90;;;;;;4993035;28;19910;-85
2023/01/28 06:44:22;;;;;;;;;;;3.90;99.90;;;;;;4992729;28;19917;-85
2023/01/28 06:46:48;;;;;;;;;;;3.90;99.90;;;;;;4992931;28;19935;-84
2023/01/28 06:49:13;;;;;;;;;;;3.90;99.90;;;;;;4993025;28;19910;-84
2023/01/28 06:51:39;;;;;;;;;;;3.90;99.90;;;;;;4993253;28;19906;-84
2023/01/28 06:54:04;;;;;;;;;;;3.90;99.90;;;;;;4992854;28;19910;-85
2023/01/28 06:56:30;;;;;;;;;;;3.90;99.90;;;;;;4994363;28;19913;-84
2023/01/28 06:58:55;;;;;;;;;;;3.90;99.90;;;;;;5006049;28;19905;-84
2023/01/28 07:01:21;;;;;;;;;;;3.90;99.90;;;;;;5016388;28;20263;-84
2023/01/28 07:03:46;;;;;;;;;;;3.80;99.90;;;;;;5016530;28;19912;-85
2023/01/28 07:06:12;;;;;;;;;;;3.80;99.90;;;;;;5014867;28;19921;-85
2023/01/28 07:08:38;;;;;;;;;;;3.80;99.90;;;;;;5016004;28;19905;-85
2023/01/28 07:11:04;;;;;;;;;;;3.80;99.90;;;;;;5016182;28;19980;-85
2023/01/28 07:13:30;;;;;;;;;;;3.80;99.90;;;;;;4998378;28;19944;-85
2023/01/28 07:15:55;;;;;;;;;;;3.80;99.90;;;;;;4996328;28;19909;-85
2023/01/28 07:18:21;;;;;;;;;;;3.80;99.90;;;;;;4996424;28;19909;-84
2023/01/28 07:20:46;;;;;;;;;;;3.80;99.90;;;;;;4996078;28;19913;-85
2023/01/28 07:23:12;;;;;;;;;;;3.80;99.90;;;;;;4996340;28;20364;-85
2023/01/28 07:25:38;;;;;;;;;;;3.80;99.90;;;;;;4996488;28;20372;-85
2023/01/28 07:28:03;;;;;;;;;;;3.80;99.90;;;;;;5010815;28;20364;-85
2023/01/28 07:30:29;;;;;;;;;;;3.80;99.90;;;;;;4996391;28;19952;-84
2023/01/28 07:32:55;;;;;;;;;;;3.80;99.90;;;;;;4996136;28;19917;-85
2023/01/28 07:35:21;;;;;;;;;;;3.80;99.90;;;;;;4996143;28;19906;-85
2023/01/28 07:37:50;;;;;;;;;;;3.80;99.90;;;;;;4996029;28;19912;-85
2023/01/28 07:40:15;;;;;;;;;;;3.80;99.90;;;;;;4995470;28;19921;-85
2023/01/28 07:42:41;;;;;;;;;;;3.80;99.90;;;;;;4995692;28;19914;-84
2023/01/28 07:45:07;;;;;;;;;;;3.80;99.90;;;;;;4995875;28;19936;-85
2023/01/28 07:47:32;;;;;;;;;;;3.80;99.90;;;;;;4995819;28;19916;-84
2023/01/28 07:49:58;;;;;;;;;;;3.80;99.90;;;;;;4995912;28;19921;-85
2023/01/28 07:52:23;;;;;;;;;;;3.70;99.90;;;;;;4995739;28;19906;-85
2023/01/28 07:54:49;;;;;;;;;;;3.70;99.90;;;;;;4995653;28;19921;-85
2023/01/28 07:57:21;;;;;;;;;;;3.80;99.90;;;;;;4995527;28;19906;-85
2023/01/28 07:59:50;;;;;;;;;;;3.70;99.90;;;;;;5010798;28;19912;-85
2023/01/28 08:02:16;;;;;;;;;;;3.80;99.90;;;;;;5015125;28;19912;-84
2023/01/28 08:04:42;;;;;;;;;;;3.80;99.90;;;;;;5013634;28;20300;-85
2023/01/28 08:07:07;;;;;;;;;;;3.80;99.90;;;;;;5013510;28;19916;-85
2023/01/28 08:09:33;;;;;;;;;;;3.90;99.90;;;;;;5014682;28;19909;-85
2023/01/28 08:12:00;;;;;;;;;;;3.90;99.90;;;;;;5001939;28;19906;-84
2023/01/28 08:14:26;;;;;;;;;;;3.90;99.90;;;;;;4975485;28;19914;-84
2023/01/28 08:16:52;;;;;;;;;;;3.90;99.90;;;;;;4974869;28;20059;-85
2023/01/28 08:19:17;;;;;;;;;;;3.90;99.90;;;;;;4975631;28;20404;-84
2023/01/28 08:21:43;;;;;;;;;;;4.00;99.90;;;;;;4974433;28;20270;-84
2023/01/28 08:24:08;;;;;;;;;;;4.00;99.90;;;;;;4975815;28;19912;-85
2023/01/28 08:26:34;;;;;;;;;;;4.00;99.90;;;;;;4973658;28;19906;-84
2023/01/28 08:28:59;;;;;;;;;;;4.10;99.90;;;;;;4974162;28;20391;-85
2023/01/28 08:31:26;;;;;;;;;;;4.00;99.90;;;;;;4975574;28;19989;-85
2023/01/28 08:33:52;;;;;;;;;;;4.00;99.90;;;;;;4975666;28;19917;-84
2023/01/28 08:36:17;;;;;;;;;;;4.10;99.90;;;;;;4975369;28;19906;-84
2023/01/28 08:38:43;;;;;;;;;;;4.10;99.90;;;;;;4974926;28;19910;-85
2023/01/28 08:41:08;;;;;;;;;;;4.10;99.90;;;;;;4975476;28;19920;-85
2023/01/28 08:43:34;;;;;;;;;;;4.20;99.90;;;;;;4990049;28;20372;-85
2023/01/28 08:45:59;;;;;;;;;;;4.20;99.90;;;;;;4981952;28;19906;-85
2023/01/28 08:48:25;;;;;;;;;;;4.40;99.90;;;;;;4994592;28;19910;-85
2023/01/28 08:50:50;;;;;;;;;;;4.40;99.90;;;;;;4994520;28;19916;-85
2023/01/28 08:53:17;;;;;;;;;;;4.50;99.90;;;;;;4994902;28;19909;-85
2023/01/28 08:55:43;;;;;;;;;;;4.70;99.90;;;;;;4993445;28;20443;-85
2023/01/28 08:58:13;;;;;;;;;;;4.80;99.90;;;;;;4995991;28;19960;-85
2023/01/28 09:00:38;;;;;;;;;;;4.90;99.90;;;;;;5012649;28;19963;-85
2023/01/28 09:03:04;;;;;;;;;;;4.80;99.90;;;;;;5014062;28;20007;-85
2023/01/28 09:05:31;;;;;;;;;;;4.90;99.90;;;;;;5012666;28;19917;-85
2023/01/28 09:08:00;;;;;;;;;;;4.90;99.90;;;;;;5014311;28;19905;-85
2023/01/28 09:10:25;;;;;;;;;;;5.00;99.90;;;;;;5013747;28;20283;-85
2023/01/28 09:12:51;;;;;;;;;;;5.10;99.90;;;;;;4999779;28;19912;-85
2023/01/28 09:15:16;;;;;;;;;;;5.20;99.90;;;;;;4994025;28;19916;-85
2023/01/28 09:17:42;;;;;;;;;;;5.30;99.90;;;;;;4993835;28;19913;-85
2023/01/28 09:20:08;;;;;;;;;;;5.20;99.90;;;;;;4992984;28;20369;-85
2023/01/28 09:22:33;;;;;;;;;;;5.20;99.90;;;;;;4992620;28;19906;-85
2023/01/28 09:24:59;;;;;;;;;;;5.20;99.90;;;;;;4993824;28;19905;-85
2023/01/28 09:27:24;;;;;;;;;;;5.30;99.90;;;;;;4993742;28;20319;-85
2023/01/28 09:29:50;;;;;;;;;;;5.20;99.90;;;;;;4994041;28;19956;-85
2023/01/28 09:32:15;;;;;;;;;;;5.20;99.90;;;;;;5008499;28;19929;-84
2023/01/28 09:34:43;;;;;;;;;;;5.10;99.90;;;;;;4993686;28;19905;-85
2023/01/28 09:37:10;;;;;;;;;;;5.30;99.90;;;;;;4993867;28;19910;-85
2023/01/28 09:39:36;;;;;;;;;;;5.30;99.90;;;;;;4993831;28;19905;-85
2023/01/28 09:42:27;;;;;;;;;;;5.40;99.90;;;;;;4993541;28;20418;-85
2023/01/28 09:44:56;;;;;;;;;;;5.40;99.90;;;;;;4984336;28;19905;-85
2023/01/28 09:47:25;;;;;;;;;;;5.30;99.90;;;;;;4993770;28;19956;-85
2023/01/28 09:49:52;;;;;;;;;;;5.30;99.90;;;;;;5009121;28;20292;-85
2023/01/28 09:52:20;;;;;;;;;;;5.50;99.90;;;;;;4993567;28;19906;-85
2023/01/28 09:54:51;;;;;;;;;;;5.50;99.90;;;;;;4993787;28;19976;-85
2023/01/28 09:57:23;;;;;;;;;;;5.50;99.90;;;;;;4993363;28;19906;-85
2023/01/28 09:59:49;;;;;;;;;;;5.50;99.90;;;;;;5010236;28;19905;-85
2023/01/28 10:02:30;;;;;;;;;;;5.50;99.90;;;;;;5013013;28;19917;-85
2023/01/28 10:05:05;;;;;;;;;;;5.50;99.90;;;;;;5011593;28;19917;-85
2023/01/28 10:07:41;;;;;;;;;;;5.60;99.90;;;;;;5011808;28;19940;-85
2023/01/28 10:10:07;;;;;;;;;;;5.60;99.90;;;;;;5012915;28;20007;-85
2023/01/28 10:12:35;;;;;;;;;;;5.60;99.90;;;;;;5000105;28;20475;-85
2023/01/28 10:15:23;;;;;;;;;;;5.50;99.90;;;;;;4993198;28;20328;-85
2023/01/28 10:17:51;;;;;;;;;;;5.40;99.90;;;;;;4992022;28;20353;-85
2023/01/28 10:20:27;;;;;;;;;;;5.30;99.90;;;;;;4992817;28;19914;-85
2023/01/28 10:22:57;;;;;;;;;;;5.40;99.90;;;;;;4993284;28;19964;-85
2023/01/28 10:25:28;;;;;;;;;;;5.50;99.90;;;;;;5008243;28;20288;-85
2023/01/28 10:27:54;;;;;;;;;;;5.70;99.90;;;;;;5008014;28;19913;-85
2023/01/28 10:30:24;;;;;;;;;;;6.00;99.90;;;;;;4992850;28;19906;-84
2023/01/28 10:33:02;;;;;;;;;;;6.00;99.90;;;;;;4997059;28;19913;-85
2023/01/28 10:35:29;;;;;;;;;;;6.10;99.90;;;;;;4997281;28;20292;-84
2023/01/28 10:38:05;;;;;;;;;;;6.00;99.90;;;;;;4997220;28;19929;-85
2023/01/28 10:40:30;;;;;;;;;;;6.10;99.90;;;;;;4996789;28;19910;-85
2023/01/28 10:42:56;;;;;;;;;;;6.20;99.90;;;;;;4996564;28;19906;-85
2023/01/28 10:45:33;;;;;;;;;;;6.20;99.90;;;;;;4996943;28;20447;-85
2023/01/28 10:48:04;;;;;;;;;;;6.30;99.90;;;;;;4997156;28;20265;-85
2023/01/28 10:50:30;;;;;;;;;;;6.40;99.90;;;;;;4996892;28;19905;-86
2023/01/28 10:53:00;;;;;;;;;;;6.60;99.90;;;;;;4995677;28;19909;-85
2023/01/28 10:55:28;;;;;;;;;;;6.60;99.90;;;;;;4996745;28;19917;-85
2023/01/28 10:57:54;;;;;;;;;;;6.60;99.90;;;;;;4997723;28;19928;-85
2023/01/28 11:00:19;;;;;;;;;;;7.00;99.90;;;;;;5016311;28;20355;-85
2023/01/28 11:02:46;;;;;;;;;;;6.80;99.90;;;;;;5016615;28;19924;-85
2023/01/28 11:05:17;;;;;;;;;;;6.80;99.90;;;;;;5016183;28;19927;-85
2023/01/28 11:07:43;;;;;;;;;;;6.80;99.90;;;;;;5015061;28;19905;-85
2023/01/28 11:10:23;;;;;;;;;;;6.80;99.90;;;;;;5016090;28;19905;-85
2023/01/28 11:12:56;;;;;;;;;;;6.80;99.90;;;;;;4987723;28;20384;-85
2023/01/28 11:15:21;;;;;;;;;;;6.70;99.90;;;;;;4976395;28;19950;-85
2023/01/28 11:17:48;;;;;;;;;;;6.70;99.90;;;;;;4975856;28;19948;-85
2023/01/28 11:20:19;;;;;;;;;;;6.60;99.90;;;;;;4976660;28;19917;-85
2023/01/28 11:22:45;;;;;;;;;;;6.60;99.90;;;;;;4976008;28;19965;-85
2023/01/28 11:25:31;;;;;;;;;;;6.50;99.90;;;;;;4975325;28;20388;-85
2023/01/28 11:27:57;;;;;;;;;;;6.50;99.90;;;;;;4976528;28;19906;-84
2023/01/28 11:30:25;;;;;;;;;;;6.40;99.90;;;;;;4976470;28;20361;-84
2023/01/28 11:33:06;;;;;;;;;;;6.30;99.90;;;;;;4976794;28;19994;-85
2023/01/28 11:35:32;;;;;;;;;;;6.30;99.90;;;;;;4976693;28;19921;-85
2023/01/28 11:37:59;;;;;;;;;;;6.30;99.90;;;;;;4976850;28;19906;-85
2023/01/28 11:40:25;;;;;;;;;;;6.40;99.90;;;;;;4976512;28;19913;-85
2023/01/28 11:42:51;;;;;;;;;;;6.40;99.90;;;;;;4975200;28;20000;-85
2023/01/28 11:45:18;;;;;;;;;;;6.60;99.90;;;;;;4992292;28;19933;-84
2023/01/28 11:47:50;;;;;;;;;;;6.70;99.90;;;;;;4996068;28;19912;-85
2023/01/28 11:50:21;;;;;;;;;;;6.60;99.90;;;;;;4996033;28;19905;-85
2023/01/28 11:52:47;;;;;;;;;;;6.60;99.90;;;;;;4996026;28;19925;-85
2023/01/28 11:55:31;;;;;;;;;;;6.80;99.90;;;;;;4995727;28;20376;-85
2023/01/28 11:58:02;;;;;;;;;;;6.80;99.90;;;;;;5011846;28;19928;-84
2023/01/28 12:00:46;;;;;;;;;;;6.80;99.90;;;;;;5015182;28;19913;-85
2023/01/28 12:03:20;;;;;;;;;;;6.80;99.90;;;;;;5015515;28;19956;-85
2023/01/28 12:05:46;;;;;;;;;;;7.00;99.90;;;;;;5015222;28;19925;-85
2023/01/28 12:08:35;;;;;;;;;;;7.20;99.90;;;;;;5014987;28;19941;-85
2023/01/28 12:11:03;;;;;;;;;;;7.40;99.90;;;;;;4977447;28;20315;-85
2023/01/28 12:14:07;;;;;;;;;;;7.10;99.90;;;;;;4975935;28;19906;-85
2023/01/28 12:16:45;;;;;;;;;;;7.20;99.90;;;;;;4954262;29;19906;-85
2023/01/28 12:19:20;;;;;;;;;;;7.40;99.90;;;;;;4954628;29;19998;-85
2023/01/28 12:22:11;;;;;;;;;;;7.30;99.90;;;;;;4966629;28;19918;-85
2023/01/28 12:24:40;;;;;;;;;;;7.60;99.90;;;;;;4974821;28;19933;-85
2023/01/28 12:27:05;;;;;;;;;;;7.50;99.90;;;;;;4975126;28;19907;-85
2023/01/28 12:29:46;;;;;;;;;;;7.50;99.90;;;;;;4974479;28;19916;-85
2023/01/28 12:32:18;;;;;;;;;;;7.40;99.90;;;;;;4975756;28;19910;-85
2023/01/28 12:34:50;;;;;;;;;;;7.50;99.90;;;;;;4975451;28;20300;-85
2023/01/28 12:37:27;;;;;;;;;;;7.60;99.90;;;;;;4975414;28;19996;-84
2023/01/28 12:40:10;;;;;;;;;;;7.70;99.90;;;;;;4975378;28;20428;-85
2023/01/28 12:42:45;;;;;;;;;;;8.00;99.90;;;;;;4974688;28;20052;-83
2023/01/28 12:45:19;;;;;;;;;;;8.00;99.90;;;;;;4975504;28;19906;-84
2023/01/28 12:47:48;;;;;;;;;;;7.50;99.90;;;;;;5009864;28;19906;-85
2023/01/28 12:50:14;;;;;;;;;;;7.30;99.90;;;;;;5010013;28;19992;-85
2023/01/28 12:52:43;;;;;;;;;;;7.30;99.90;;;;;;4994762;28;20480;-84
2023/01/28 12:55:15;;;;;;;;;;;7.40;99.90;;;;;;4994469;28;19929;-85
2023/01/28 12:57:40;;;;;;;;;;;7.30;99.90;;;;;;4994594;28;19905;-85
2023/01/28 13:00:12;;;;;;;;;;;7.30;99.90;;;;;;4992959;28;20390;-85
2023/01/28 13:02:44;;;;;;;;;;;7.30;99.90;;;;;;4994507;28;19948;-85
2023/01/28 13:05:09;;;;;;;;;;;7.50;99.90;;;;;;4994520;28;19960;-85
2023/01/28 13:07:42;;;;;;;;;;;7.80;99.90;;;;;;4994619;28;20323;-85
2023/01/28 13:10:25;;;;;;;;;;;7.60;99.90;;;;;;4992877;28;19906;-85
2023/01/28 13:12:52;;;;;;;;;;;7.60;99.90;;;;;;4980231;28;19906;-85
2023/01/28 13:15:18;;;;;;;;;;;7.40;99.90;;;;;;4974745;28;19913;-84
2023/01/28 13:18:13;;;;;;;;;;;7.20;99.90;;;;;;4974214;28;19941;-84
2023/01/28 13:20:46;;;;;;;;;;;7.10;99.90;;;;;;4976530;28;20266;-85
2023/01/28 13:23:35;;;;;;;;;;;7.20;99.90;;;;;;4974739;28;20424;-84
2023/01/28 13:26:08;;;;;;;;;;;7.40;99.90;;;;;;4974279;28;20000;-84
2023/01/28 13:28:34;;;;;;;;;;;7.70;99.90;;;;;;4974371;28;19949;-85
2023/01/28 13:31:01;;;;;;;;;;;8.20;99.90;;;;;;4974511;28;19913;-85
2023/01/28 13:33:32;;;;;;;;;;;8.10;99.90;;;;;;4973326;28;19906;-84
2023/01/28 13:36:00;;;;;;;;;;;8.20;99.90;;;;;;4974600;28;19913;-85
2023/01/28 13:38:26;;;;;;;;;;;8.10;99.90;;;;;;4974333;28;19910;-84
2023/01/28 13:40:55;;;;;;;;;;;8.10;99.90;;;;;;4974211;28;19929;-85
2023/01/28 13:43:26;;;;;;;;;;;8.40;99.90;;;;;;4988815;28;20397;-84
2023/01/28 13:46:00;;;;;;;;;;;8.10;99.90;;;;;;4994979;28;19916;-84
2023/01/28 13:48:33;;;;;;;;;;;7.90;99.90;;;;;;5008601;28;19905;-84
2023/01/28 13:51:00;;;;;;;;;;;7.60;99.90;;;;;;4992519;28;19906;-84
2023/01/28 13:53:26;;;;;;;;;;;7.40;99.90;;;;;;4992474;28;20004;-84
2023/01/28 13:55:53;;;;;;;;;;;7.10;99.90;;;;;;5008817;28;19949;-84
2023/01/28 13:58:19;;;;;;;;;;;7.00;99.90;;;;;;4997993;28;19905;-84
2023/01/28 14:00:44;;;;;;;;;;;6.70;99.90;;;;;;5013154;28;20587;-84
2023/01/28 14:03:29;;;;;;;;;;;6.70;99.90;;;;;;5013246;28;19905;-84
2023/01/28 14:06:13;;;;;;;;;;;6.60;99.90;;;;;;5012590;28;19918;-84
2023/01/28 14:08:50;;;;;;;;;;;6.70;99.90;;;;;;5011692;28;19936;-84
2023/01/28 14:11:19;;;;;;;;;;;6.70;99.90;;;;;;5011374;28;19928;-84
2023/01/28 14:13:44;;;;;;;;;;;6.80;99.90;;;;;;4974055;28;19906;-84
2023/01/28 14:16:12;;;;;;;;;;;6.60;99.90;;;;;;4974248;28;19906;-84
2023/01/28 14:18:41;;;;;;;;;;;6.60;99.90;;;;;;4973387;28;19906;-84
2023/01/28 14:21:11;;;;;;;;;;;6.80;99.90;;;;;;4972367;28;19916;-84
2023/01/28 14:23:38;;;;;;;;;;;6.80;99.90;;;;;;4973846;28;19961;-84
2023/01/28 14:26:03;;;;;;;;;;;6.80;99.90;;;;;;4973042;28;19972;-84
2023/01/28 14:28:31;;;;;;;;;;;6.90;99.90;;;;;;4973792;28;19906;-84
2023/01/28 14:31:02;;;;;;;;;;;6.90;99.90;;;;;;4972314;28;20397;-84
2023/01/28 14:33:27;;;;;;;;;;;6.80;99.90;;;;;;4972089;28;19961;-84
2023/01/28 14:35:54;;;;;;;;;;;6.80;99.90;;;;;;4988703;28;19957;-85
2023/01/28 14:38:20;;;;;;;;;;;6.70;99.90;;;;;;4972042;28;20283;-84
2023/01/28 14:40:50;;;;;;;;;;;6.50;99.90;;;;;;4973136;28;20365;-84
2023/01/28 14:43:19;;;;;;;;;;;6.40;99.90;;;;;;4973308;28;19906;-84
2023/01/28 14:45:47;;;;;;;;;;;6.40;99.90;;;;;;4972566;28;19910;-84
2023/01/28 14:48:19;;;;;;;;;;;6.30;99.90;;;;;;4973682;28;20284;-84
2023/01/28 14:50:44;;;;;;;;;;;6.20;99.90;;;;;;4973377;28;20327;-84
2023/01/28 14:53:25;;;;;;;;;;;6.20;99.90;;;;;;4973903;28;19928;-84
2023/01/28 14:56:08;;;;;;;;;;;6.20;99.90;;;;;;4973808;28;19911;-84
2023/01/28 14:58:44;;;;;;;;;;;6.10;99.90;;;;;;4985890;28;19909;-85
2023/01/28 15:01:23;;;;;;;;;;;6.10;99.90;;;;;;5011371;28;19913;-85
2023/01/28 15:03:49;;;;;;;;;;;6.10;99.90;;;;;;5011482;28;19913;-85
2023/01/28 15:06:16;;;;;;;;;;;6.30;99.90;;;;;;5012180;28;19918;-85
2023/01/28 15:08:42;;;;;;;;;;;6.40;99.90;;;;;;5012352;28;20004;-85
2023/01/28 15:11:10;;;;;;;;;;;6.40;99.90;;;;;;5012408;28;19952;-85
2023/01/28 15:13:37;;;;;;;;;;;6.30;99.90;;;;;;4972889;28;20361;-85
2023/01/28 15:16:03;;;;;;;;;;;6.20;99.90;;;;;;4973457;28;19913;-85